Time;durP1;ratioP1;P1;durP2;ratioP2;P2;SDS_P1;SDS_P2;PMS_P1;PMS_P2;Temp;Humidity;BMP_temperature;BMP_pressure;BME280_temperature;BME280_humidity;BME280_pressure;Samples;Min_cycle;Max_cycle;Signal;HPM_P1;HPM_P2
2021/11/26 00:01:03;;;;;;;2.42;0.60;;;3.60;99.90;;;;;;5005102;28;20081;-63
2021/11/26 00:03:31;;;;;;;1.30;0.30;;;3.60;99.90;;;;;;5002950;28;20046;-64
2021/11/26 00:05:59;;;;;;;0.75;0.40;;;3.60;99.90;;;;;;5004736;28;20054;-67
2021/11/26 00:08:26;;;;;;;1.52;0.50;;;3.60;99.90;;;;;;5001303;28;20046;-67
2021/11/26 00:10:53;;;;;;;0.60;0.55;;;3.60;99.90;;;;;;5004829;28;20060;-67
2021/11/26 00:13:27;;;;;;;0.77;0.50;;;3.60;99.90;;;;;;5005372;28;20042;-64
2021/11/26 00:16:02;;;;;;;1.25;0.50;;;3.60;99.90;;;;;;5008750;28;20140;-68
2021/11/26 00:18:31;;;;;;;3.13;0.90;;;3.60;99.90;;;;;;5006264;28;20050;-65
2021/11/26 00:20:59;;;;;;;2.85;0.63;;;3.60;99.90;;;;;;5006240;28;20111;-66
2021/11/26 00:23:26;;;;;;;1.80;0.60;;;3.60;99.90;;;;;;5008024;28;20046;-64
2021/11/26 00:25:53;;;;;;;1.67;0.57;;;3.60;99.90;;;;;;5006852;28;20065;-67
2021/11/26 00:28:20;;;;;;;1.48;0.80;;;3.60;99.90;;;;;;5004522;28;20610;-64
2021/11/26 00:30:48;;;;;;;2.78;0.50;;;3.50;99.90;;;;;;5007713;28;20105;-64
2021/11/26 00:33:16;;;;;;;4.65;0.40;;;3.50;99.90;;;;;;5007388;28;20062;-67
2021/11/26 00:35:43;;;;;;;1.40;0.70;;;3.50;99.90;;;;;;5005316;28;20069;-67
2021/11/26 00:38:10;;;;;;;0.50;0.25;;;3.40;99.90;;;;;;5006759;28;21043;-64
2021/11/26 00:40:37;;;;;;;2.50;1.20;;;3.40;99.90;;;;;;5002868;28;20049;-64
2021/11/26 00:43:04;;;;;;;1.90;1.08;;;3.40;99.90;;;;;;5007302;28;20348;-65
2021/11/26 00:45:31;;;;;;;0.55;0.40;;;3.40;99.90;;;;;;5005858;28;20044;-64
2021/11/26 00:47:58;;;;;;;3.60;0.65;;;3.30;99.90;;;;;;5007746;28;20084;-65
2021/11/26 00:50:26;;;;;;;1.80;1.70;;;3.30;99.90;;;;;;5005693;28;20050;-66
2021/11/26 00:52:54;;;;;;;0.60;0.50;;;3.40;99.90;;;;;;5007880;28;20104;-65
2021/11/26 00:55:21;;;;;;;0.57;0.40;;;3.40;99.90;;;;;;5007402;28;20115;-66
2021/11/26 00:57:48;;;;;;;0.50;0.50;;;3.40;99.90;;;;;;5006169;28;20038;-66
2021/11/26 01:00:17;;;;;;;0.95;0.68;;;3.40;99.90;;;;;;5004920;28;20116;-65
2021/11/26 01:02:45;;;;;;;1.73;0.40;;;3.40;99.90;;;;;;5004554;28;20096;-67
2021/11/26 01:05:13;;;;;;;1.17;0.52;;;3.40;99.90;;;;;;5007616;28;20133;-64
2021/11/26 01:07:41;;;;;;;1.20;0.50;;;3.40;99.90;;;;;;5004366;28;20041;-64
2021/11/26 01:10:11;;;;;;;1.77;0.80;;;3.40;99.90;;;;;;5003998;28;20123;-68
2021/11/26 01:12:39;;;;;;;3.88;0.90;;;3.40;99.90;;;;;;5004059;28;20046;-65
2021/11/26 01:15:09;;;;;;;0.82;0.40;;;3.40;99.90;;;;;;5007615;28;20423;-69
2021/11/26 01:17:39;;;;;;;2.10;0.90;;;3.30;99.90;;;;;;5006006;28;20053;-67
2021/11/26 01:20:10;;;;;;;0.90;0.90;;;3.30;99.90;;;;;;5002427;28;20042;-68
2021/11/26 01:22:38;;;;;;;1.27;0.40;;;3.40;99.90;;;;;;5004742;28;20041;-64
2021/11/26 01:25:06;;;;;;;3.50;0.88;;;3.40;99.90;;;;;;5006144;28;20393;-65
2021/11/26 01:27:34;;;;;;;1.67;0.90;;;3.40;99.90;;;;;;5004709;28;20571;-66
2021/11/26 01:30:10;;;;;;;1.70;0.70;;;3.40;99.90;;;;;;5007071;28;20053;-66
2021/11/26 01:32:37;;;;;;;1.13;0.90;;;3.40;99.90;;;;;;5006798;28;20476;-64
2021/11/26 01:35:05;;;;;;;2.17;0.85;;;3.40;99.90;;;;;;5015859;28;20115;-66
2021/11/26 01:37:32;;;;;;;2.40;0.82;;;3.40;99.90;;;;;;5005389;28;20034;-64
2021/11/26 01:39:59;;;;;;;1.35;0.80;;;3.40;99.90;;;;;;5006526;28;20597;-66
2021/11/26 01:42:26;;;;;;;1.42;0.85;;;3.40;99.90;;;;;;5004075;28;20141;-64
2021/11/26 01:44:53;;;;;;;2.30;0.95;;;3.40;99.90;;;;;;5006025;28;20034;-66
2021/11/26 01:47:20;;;;;;;3.65;1.48;;;3.40;99.90;;;;;;5005549;28;20717;-64
2021/11/26 01:49:47;;;;;;;8.45;1.85;;;3.40;99.90;;;;;;5007039;28;20056;-63
2021/11/26 01:52:14;;;;;;;3.30;1.17;;;3.40;99.90;;;;;;5002287;28;20757;-65
2021/11/26 01:54:41;;;;;;;3.33;0.95;;;3.40;99.90;;;;;;5005748;28;20049;-65
2021/11/26 01:57:09;;;;;;;2.72;0.80;;;3.40;99.90;;;;;;5004313;28;20080;-65
2021/11/26 01:59:36;;;;;;;2.25;1.02;;;3.30;99.90;;;;;;5004568;28;20096;-64
2021/11/26 02:02:03;;;;;;;1.25;0.55;;;3.40;99.90;;;;;;5004497;28;20038;-64
2021/11/26 02:04:30;;;;;;;0.47;0.47;;;3.40;99.90;;;;;;5006224;28;20041;-64
2021/11/26 02:06:58;;;;;;;2.85;1.23;;;3.30;99.90;;;;;;5004697;28;20498;-65
2021/11/26 02:09:25;;;;;;;1.95;0.73;;;3.40;99.90;;;;;;5006470;28;20060;-64
2021/11/26 02:11:52;;;;;;;3.10;0.90;;;3.40;99.90;;;;;;5005517;28;20443;-64
2021/11/26 02:14:19;;;;;;;4.18;1.05;;;3.40;99.90;;;;;;5003977;28;20054;-66
2021/11/26 02:16:48;;;;;;;3.10;1.05;;;3.40;99.90;;;;;;5006454;28;20439;-65
2021/11/26 02:19:16;;;;;;;1.30;0.90;;;3.40;99.90;;;;;;5005651;28;20053;-67
2021/11/26 02:21:43;;;;;;;3.80;0.98;;;3.40;99.90;;;;;;5003355;28;20057;-64
2021/11/26 02:24:11;;;;;;;5.40;1.05;;;3.40;99.90;;;;;;5003004;28;20050;-64
2021/11/26 02:26:41;;;;;;;3.78;0.73;;;3.40;99.90;;;;;;5005215;28;20054;-64
2021/11/26 02:29:10;;;;;;;1.70;0.63;;;3.40;99.90;;;;;;5005160;28;20038;-65
2021/11/26 02:31:38;;;;;;;1.73;0.90;;;3.40;99.90;;;;;;4997188;28;20046;-65
2021/11/26 02:34:06;;;;;;;2.38;0.98;;;3.40;99.90;;;;;;5002724;28;20050;-64
2021/11/26 02:36:34;;;;;;;3.42;0.60;;;3.40;99.90;;;;;;5004508;28;20052;-65
2021/11/26 02:39:01;;;;;;;0.80;0.45;;;3.50;99.90;;;;;;5004277;28;20125;-64
2021/11/26 02:41:28;;;;;;;2.80;1.00;;;3.40;99.90;;;;;;5004712;28;20104;-66
2021/11/26 02:43:55;;;;;;;4.20;1.48;;;3.40;99.90;;;;;;5004292;28;20056;-67
2021/11/26 02:46:22;;;;;;;2.05;0.80;;;3.40;99.90;;;;;;5004959;28;20057;-64
2021/11/26 02:48:49;;;;;;;1.15;0.90;;;3.30;99.90;;;;;;5003922;28;20137;-64
2021/11/26 02:51:16;;;;;;;2.55;0.77;;;3.30;99.90;;;;;;5005486;28;20140;-65
2021/11/26 02:53:43;;;;;;;5.22;0.98;;;3.30;99.90;;;;;;5002895;28;20520;-67
2021/11/26 02:56:10;;;;;;;1.63;0.82;;;3.20;99.90;;;;;;5003237;28;20132;-65
2021/11/26 02:58:37;;;;;;;1.13;0.68;;;3.20;99.90;;;;;;5001106;28;20037;-64
2021/11/26 03:01:05;;;;;;;2.08;0.77;;;3.20;99.90;;;;;;5001096;28;20110;-67
2021/11/26 03:03:34;;;;;;;3.75;0.68;;;3.20;99.90;;;;;;5001212;28;20042;-64
2021/11/26 03:06:03;;;;;;;8.35;1.25;;;3.20;99.90;;;;;;5003671;28;20049;-68
2021/11/26 03:08:31;;;;;;;1.55;0.60;;;3.20;99.90;;;;;;5003357;28;20096;-65
2021/11/26 03:11:00;;;;;;;2.80;0.70;;;3.20;99.90;;;;;;5003533;28;20107;-67
2021/11/26 03:13:28;;;;;;;6.15;0.93;;;3.10;99.90;;;;;;5003610;28;20064;-64
2021/11/26 03:15:55;;;;;;;1.52;0.47;;;3.10;99.90;;;;;;5005631;28;20092;-65
2021/11/26 03:18:25;;;;;;;1.02;0.35;;;3.10;99.90;;;;;;4999051;28;20084;-68
2021/11/26 03:20:52;;;;;;;1.00;0.45;;;3.10;99.90;;;;;;5002221;28;20145;-67
2021/11/26 03:23:22;;;;;;;0.77;0.77;;;3.00;99.90;;;;;;5002306;28;20049;-64
2021/11/26 03:25:49;;;;;;;1.75;0.47;;;3.00;99.90;;;;;;5004116;28;20054;-64
2021/11/26 03:28:16;;;;;;;1.35;0.65;;;3.00;99.90;;;;;;5003356;28;20407;-64
2021/11/26 03:30:44;;;;;;;1.13;0.40;;;2.90;99.90;;;;;;5003879;28;20390;-64
2021/11/26 03:33:11;;;;;;;2.28;0.52;;;3.00;99.90;;;;;;5003972;28;20069;-65
2021/11/26 03:35:38;;;;;;;1.77;0.45;;;3.00;99.90;;;;;;5004241;28;20050;-64
2021/11/26 03:38:06;;;;;;;7.18;0.80;;;3.00;99.90;;;;;;5003614;28;20271;-67
2021/11/26 03:40:33;;;;;;;2.30;0.60;;;3.00;99.90;;;;;;5003349;28;20046;-66
2021/11/26 03:43:01;;;;;;;1.50;0.40;;;3.00;99.90;;;;;;5001859;28;20120;-71
2021/11/26 03:45:29;;;;;;;3.17;0.60;;;3.00;99.90;;;;;;5003305;28;20084;-67
2021/11/26 03:47:58;;;;;;;1.95;0.65;;;3.00;99.90;;;;;;5007913;28;20124;-67
2021/11/26 03:50:27;;;;;;;3.80;1.02;;;3.00;99.90;;;;;;5005699;28;20041;-66
2021/11/26 03:52:55;;;;;;;1.45;1.27;;;2.90;99.90;;;;;;5001242;28;20108;-67
2021/11/26 03:55:24;;;;;;;3.22;0.60;;;2.90;99.90;;;;;;5006995;28;20041;-65
2021/11/26 03:57:51;;;;;;;2.63;0.52;;;2.90;99.90;;;;;;5009014;28;20046;-65
2021/11/26 04:00:19;;;;;;;3.22;0.80;;;3.00;99.90;;;;;;5006274;28;20049;-64
2021/11/26 04:02:47;;;;;;;1.80;0.60;;;2.90;99.90;;;;;;5008480;28;21323;-67
2021/11/26 04:05:15;;;;;;;1.55;0.57;;;2.90;99.90;;;;;;5006470;28;20038;-64
2021/11/26 04:07:42;;;;;;;1.70;0.50;;;2.90;99.90;;;;;;5007160;28;20546;-65
2021/11/26 04:10:11;;;;;;;0.88;0.40;;;3.00;99.90;;;;;;5005098;28;20081;-69
2021/11/26 04:12:39;;;;;;;0.85;0.45;;;3.00;99.90;;;;;;5007109;28;20125;-64
2021/11/26 04:15:08;;;;;;;1.05;0.57;;;3.00;99.90;;;;;;5005971;28;20050;-70
2021/11/26 04:17:36;;;;;;;1.95;0.68;;;2.90;99.90;;;;;;5007938;28;20425;-67
2021/11/26 04:20:06;;;;;;;1.17;0.60;;;2.90;99.90;;;;;;5036472;28;20045;-64
2021/11/26 04:22:33;;;;;;;1.00;0.55;;;2.90;99.90;;;;;;5007919;28;20065;-69
2021/11/26 04:25:00;;;;;;;1.77;0.63;;;2.90;99.90;;;;;;5007435;28;20452;-68
2021/11/26 04:27:27;;;;;;;1.75;0.47;;;2.90;99.90;;;;;;5006226;28;20395;-65
2021/11/26 04:29:54;;;;;;;3.10;0.50;;;2.90;99.90;;;;;;5007602;28;20141;-67
2021/11/26 04:32:22;;;;;;;3.55;1.25;;;2.90;99.90;;;;;;5004923;28;22339;-64
2021/11/26 04:34:48;;;;;;;5.10;1.08;;;2.80;99.90;;;;;;5006234;28;20530;-65
2021/11/26 04:37:15;;;;;;;4.05;0.77;;;2.80;99.90;;;;;;5007145;28;20034;-67
2021/11/26 04:39:43;;;;;;;3.75;0.77;;;2.80;99.90;;;;;;5008041;28;20357;-64
2021/11/26 04:42:10;;;;;;;4.10;0.65;;;2.80;99.90;;;;;;5003763;28;20097;-64
2021/11/26 04:44:37;;;;;;;1.60;0.55;;;2.80;99.90;;;;;;5004549;28;20112;-69
2021/11/26 04:47:05;;;;;;;3.08;0.55;;;2.80;99.90;;;;;;5007623;28;20034;-67
2021/11/26 04:49:35;;;;;;;2.95;0.80;;;2.70;99.90;;;;;;5020449;28;20034;-66
2021/11/26 04:52:04;;;;;;;2.80;2.55;;;2.70;99.90;;;;;;5005348;28;20050;-64
2021/11/26 04:54:31;;;;;;;1.35;1.13;;;2.60;99.90;;;;;;5007374;28;20151;-65
2021/11/26 04:56:58;;;;;;;1.58;1.00;;;2.60;99.90;;;;;;5004911;28;20107;-67
2021/11/26 04:59:25;;;;;;;1.73;1.02;;;2.60;99.90;;;;;;5005701;28;20046;-66
2021/11/26 05:01:52;;;;;;;3.15;0.80;;;2.50;99.90;;;;;;5006017;28;20041;-67
2021/11/26 05:04:19;;;;;;;2.67;1.52;;;2.60;99.90;;;;;;4999907;28;20647;-64
2021/11/26 05:06:46;;;;;;;1.10;0.88;;;2.50;99.90;;;;;;5003701;28;20061;-71
2021/11/26 05:09:13;;;;;;;5.30;1.13;;;2.50;99.90;;;;;;5005374;28;20042;-66
2021/11/26 05:11:40;;;;;;;4.07;0.98;;;2.50;99.90;;;;;;5003664;28;20038;-67
2021/11/26 05:14:17;;;;;;;3.75;1.15;;;2.50;99.90;;;;;;5004470;28;20042;-64
2021/11/26 05:16:44;;;;;;;5.15;1.38;;;2.50;99.90;;;;;;5006159;28;20174;-64
2021/11/26 05:19:11;;;;;;;2.72;0.70;;;2.50;99.90;;;;;;5005510;28;20058;-66
2021/11/26 05:21:38;;;;;;;4.30;0.93;;;2.50;99.90;;;;;;5004942;28;20050;-64
2021/11/26 05:24:06;;;;;;;3.13;0.77;;;2.50;99.90;;;;;;5003217;28;20138;-66
2021/11/26 05:26:33;;;;;;;4.10;1.20;;;2.40;99.90;;;;;;5005445;28;20429;-67
2021/11/26 05:29:00;;;;;;;0.47;0.47;;;2.40;99.90;;;;;;5003904;28;20045;-65
2021/11/26 05:31:27;;;;;;;1.23;0.70;;;2.40;99.90;;;;;;5005197;28;20548;-65
2021/11/26 05:33:58;;;;;;;1.33;0.65;;;2.40;99.90;;;;;;5002384;28;20463;-70
2021/11/26 05:36:25;;;;;;;2.30;0.80;;;2.30;99.90;;;;;;5003731;28;20134;-67
2021/11/26 05:38:52;;;;;;;3.35;1.20;;;2.30;99.90;;;;;;5006018;28;20058;-65
2021/11/26 05:41:19;;;;;;;2.75;1.48;;;2.30;99.90;;;;;;5004544;28;20046;-72
2021/11/26 05:43:46;;;;;;;1.38;1.15;;;2.30;99.90;;;;;;5004587;28;20057;-65
2021/11/26 05:46:14;;;;;;;1.20;0.70;;;2.30;99.90;;;;;;5004092;28;20551;-66
2021/11/26 05:48:42;;;;;;;3.83;1.08;;;2.20;99.90;;;;;;5006770;28;20443;-65
2021/11/26 05:51:09;;;;;;;2.83;0.40;;;2.20;99.90;;;;;;5005251;28;20104;-66
2021/11/26 05:53:36;;;;;;;5.03;0.88;;;2.20;99.90;;;;;;5007116;28;20050;-66
2021/11/26 05:56:04;;;;;;;1.08;0.60;;;2.20;99.90;;;;;;5000299;28;20065;-70
2021/11/26 05:58:32;;;;;;;5.65;0.98;;;2.20;99.90;;;;;;5006606;28;20049;-64
2021/11/26 06:01:00;;;;;;;2.85;1.05;;;2.20;99.90;;;;;;5003848;28;20081;-67
2021/11/26 06:03:27;;;;;;;9.80;1.40;;;2.20;99.90;;;;;;5003503;28;20116;-67
2021/11/26 06:05:54;;;;;;;8.63;1.90;;;2.20;99.90;;;;;;5000699;28;20655;-71
2021/11/26 06:08:21;;;;;;;10.00;2.28;;;2.10;99.90;;;;;;4998430;28;20443;-64
2021/11/26 06:10:48;;;;;;;8.73;2.83;;;2.10;99.90;;;;;;5001849;28;20053;-64
2021/11/26 06:13:15;;;;;;;4.32;2.05;;;2.10;99.90;;;;;;5005050;28;20636;-63
2021/11/26 06:15:42;;;;;;;6.05;2.35;;;2.20;99.90;;;;;;5003013;28;20038;-65
2021/11/26 06:18:09;;;;;;;3.10;0.65;;;2.20;99.90;;;;;;5002524;28;20407;-66
2021/11/26 06:20:36;;;;;;;6.75;1.65;;;2.20;99.90;;;;;;5003660;28;20730;-64
2021/11/26 06:23:03;;;;;;;5.82;2.03;;;2.20;99.90;;;;;;5005802;28;20104;-66
2021/11/26 06:25:30;;;;;;;3.60;1.58;;;2.20;99.90;;;;;;5003632;28;20098;-68
2021/11/26 06:27:58;;;;;;;5.60;1.20;;;2.20;99.90;;;;;;5003617;28;20050;-64
2021/11/26 06:30:26;;;;;;;3.50;0.55;;;2.20;99.90;;;;;;5002257;28;20046;-66
2021/11/26 06:32:53;;;;;;;2.17;0.95;;;2.20;99.90;;;;;;5004922;28;20038;-65
2021/11/26 06:35:24;;;;;;;1.20;1.00;;;2.10;99.90;;;;;;5004400;28;20522;-72
2021/11/26 06:37:53;;;;;;;1.83;0.90;;;2.10;99.90;;;;;;5002115;28;20044;-66
2021/11/26 06:40:21;;;;;;;2.20;1.30;;;2.10;99.90;;;;;;5000630;28;20085;-64
2021/11/26 06:42:48;;;;;;;3.17;1.00;;;2.10;99.90;;;;;;5003924;28;20107;-66
2021/11/26 06:45:15;;;;;;;4.75;1.05;;;2.10;99.90;;;;;;5003019;28;20195;-66
2021/11/26 06:47:43;;;;;;;2.67;0.85;;;2.10;99.90;;;;;;5004416;28;20053;-64
2021/11/26 06:50:10;;;;;;;3.92;1.20;;;2.10;99.90;;;;;;4999620;28;20084;-64
2021/11/26 06:52:38;;;;;;;1.27;0.47;;;2.00;99.90;;;;;;5003752;28;20214;-65
2021/11/26 06:55:07;;;;;;;3.78;1.00;;;2.00;99.90;;;;;;5002326;28;20554;-65
2021/11/26 06:57:37;;;;;;;3.20;0.60;;;2.00;99.90;;;;;;5003537;28;20065;-67
2021/11/26 07:00:08;;;;;;;3.25;0.77;;;2.00;99.90;;;;;;5001874;28;20046;-65
2021/11/26 07:02:35;;;;;;;1.33;0.80;;;2.00;99.90;;;;;;5004418;28;20046;-66
2021/11/26 07:05:03;;;;;;;4.15;0.90;;;2.00;99.90;;;;;;5003095;28;20057;-64
2021/11/26 07:07:30;;;;;;;3.25;0.77;;;2.00;99.90;;;;;;5004538;28;20172;-65
2021/11/26 07:09:57;;;;;;;2.05;1.02;;;2.00;99.90;;;;;;5002122;28;20145;-65
2021/11/26 07:12:24;;;;;;;5.93;0.77;;;2.00;99.90;;;;;;5001908;28;20120;-63
2021/11/26 07:14:51;;;;;;;0.70;0.40;;;2.00;99.90;;;;;;5002802;28;20042;-68
2021/11/26 07:17:19;;;;;;;3.45;1.58;;;2.00;99.90;;;;;;5004723;28;20783;-65
2021/11/26 07:19:47;;;;;;;1.55;0.80;;;2.00;99.90;;;;;;5003258;28;20122;-64
2021/11/26 07:22:15;;;;;;;1.50;0.50;;;2.00;99.90;;;;;;5004924;28;20540;-65
2021/11/26 07:24:42;;;;;;;2.20;0.43;;;2.00;99.90;;;;;;5008497;28;20060;-63
2021/11/26 07:27:09;;;;;;;2.17;0.70;;;2.00;99.90;;;;;;5007088;28;20116;-66
2021/11/26 07:29:38;;;;;;;3.90;0.93;;;2.00;99.90;;;;;;5006706;28;20373;-66
2021/11/26 07:32:05;;;;;;;2.08;0.45;;;2.00;99.90;;;;;;5006334;28;20042;-65
2021/11/26 07:34:33;;;;;;;2.53;0.50;;;2.10;99.90;;;;;;5006765;28;20046;-64
2021/11/26 07:37:00;;;;;;;3.22;0.98;;;2.10;99.90;;;;;;5007123;28;20054;-65
2021/11/26 07:39:35;;;;;;;3.45;0.80;;;2.10;99.90;;;;;;5008555;28;20048;-64
2021/11/26 07:42:05;;;;;;;5.57;0.47;;;2.10;99.90;;;;;;5003702;28;20111;-64
2021/11/26 07:44:34;;;;;;;1.35;1.02;;;2.10;99.90;;;;;;5007126;28;20383;-63
2021/11/26 07:47:04;;;;;;;3.93;0.50;;;2.10;99.90;;;;;;5006999;28;20045;-64
2021/11/26 07:49:31;;;;;;;2.72;1.10;;;2.10;99.90;;;;;;5006880;28;20302;-67
2021/11/26 07:52:01;;;;;;;1.48;0.88;;;2.10;99.90;;;;;;5005725;28;20049;-64
2021/11/26 07:54:28;;;;;;;9.55;2.13;;;2.10;99.90;;;;;;5007046;28;20049;-63
2021/11/26 07:56:56;;;;;;;3.90;1.45;;;2.10;99.90;;;;;;5005684;28;20100;-68
2021/11/26 07:59:25;;;;;;;2.40;0.98;;;2.20;99.90;;;;;;5007457;28;20152;-64
2021/11/26 08:01:54;;;;;;;3.75;1.40;;;2.20;99.90;;;;;;5007096;28;20042;-67
2021/11/26 08:04:21;;;;;;;6.15;1.40;;;2.20;99.90;;;;;;5005892;28;20038;-65
2021/11/26 08:06:48;;;;;;;6.50;1.33;;;2.20;99.90;;;;;;5006905;28;20038;-70
2021/11/26 08:09:19;;;;;;;3.72;2.20;;;2.20;99.90;;;;;;5008151;28;20557;-65
2021/11/26 08:11:49;;;;;;;1.80;1.27;;;2.20;99.90;;;;;;5003834;28;20076;-66
2021/11/26 08:14:17;;;;;;;7.70;2.88;;;2.20;99.90;;;;;;5005496;28;20045;-66
2021/11/26 08:16:46;;;;;;;3.88;3.00;;;2.20;99.90;;;;;;5006717;28;20129;-65
2021/11/26 08:19:13;;;;;;;5.03;2.30;;;2.20;99.90;;;;;;5006324;28;20050;-67
2021/11/26 08:21:41;;;;;;;6.95;3.20;;;2.20;99.90;;;;;;5006004;28;20093;-64
2021/11/26 08:24:10;;;;;;;3.92;3.17;;;2.20;99.90;;;;;;5007015;28;20058;-63
2021/11/26 08:26:40;;;;;;;3.78;1.65;;;2.20;99.90;;;;;;5004759;28;20049;-64
2021/11/26 08:29:09;;;;;;;6.47;2.65;;;2.30;99.90;;;;;;5006334;28;20157;-63
2021/11/26 08:31:36;;;;;;;3.42;1.48;;;2.30;99.90;;;;;;5004633;28;20050;-68
2021/11/26 08:34:04;;;;;;;2.30;1.70;;;2.30;99.90;;;;;;5005911;28;20075;-64
2021/11/26 08:36:32;;;;;;;3.42;0.98;;;2.30;99.90;;;;;;5006075;28;20050;-64
2021/11/26 08:39:00;;;;;;;1.17;0.70;;;2.30;99.90;;;;;;5007347;28;20045;-64
2021/11/26 08:41:27;;;;;;;2.63;0.60;;;2.30;99.90;;;;;;5005426;28;20144;-64
2021/11/26 08:43:54;;;;;;;1.58;1.00;;;2.40;99.90;;;;;;5007748;28;20037;-63
2021/11/26 08:46:22;;;;;;;1.92;0.60;;;2.40;99.90;;;;;;5004177;28;20040;-65
2021/11/26 08:48:50;;;;;;;2.10;1.15;;;2.50;99.90;;;;;;5007269;28;20525;-63
2021/11/26 08:51:20;;;;;;;2.13;1.10;;;2.50;99.90;;;;;;5005924;28;20046;-66
2021/11/26 08:53:47;;;;;;;3.10;0.95;;;2.50;99.90;;;;;;5006362;28;20034;-67
2021/11/26 08:56:16;;;;;;;2.17;0.73;;;2.50;99.90;;;;;;5002632;28;20034;-63
2021/11/26 08:58:46;;;;;;;4.00;1.00;;;2.60;99.90;;;;;;5006580;28;20042;-65
2021/11/26 09:01:15;;;;;;;0.80;0.75;;;2.60;99.90;;;;;;5005857;28;20057;-64
2021/11/26 09:03:47;;;;;;;1.90;0.95;;;2.60;99.90;;;;;;5007483;28;20064;-70
2021/11/26 09:06:16;;;;;;;1.77;1.10;;;2.60;99.90;;;;;;5004468;28;20045;-65
2021/11/26 09:08:43;;;;;;;2.38;0.70;;;2.70;99.90;;;;;;5006085;28;20041;-64
2021/11/26 09:11:11;;;;;;;2.72;1.15;;;2.60;99.90;;;;;;5004965;28;20038;-64
2021/11/26 09:13:38;;;;;;;4.85;1.52;;;2.70;99.90;;;;;;5006371;28;20057;-68
2021/11/26 09:16:06;;;;;;;6.63;2.47;;;2.70;99.90;;;;;;5001952;28;20057;-64
2021/11/26 09:18:33;;;;;;;7.70;2.70;;;2.70;99.90;;;;;;5004926;28;20046;-64
2021/11/26 09:21:00;;;;;;;4.63;2.83;;;2.70;99.90;;;;;;5007674;28;20484;-66
2021/11/26 09:23:27;;;;;;;3.35;1.67;;;2.70;99.90;;;;;;5005387;28;20038;-64
2021/11/26 09:25:55;;;;;;;1.92;1.35;;;2.60;99.90;;;;;;5004934;28;20069;-65
2021/11/26 09:28:22;;;;;;;2.88;1.52;;;2.70;99.90;;;;;;5002071;28;20124;-64
2021/11/26 09:30:50;;;;;;;2.33;1.92;;;2.70;99.90;;;;;;5004082;28;20061;-66
2021/11/26 09:33:19;;;;;;;2.45;1.23;;;2.60;99.90;;;;;;5006054;28;20115;-65
2021/11/26 09:35:47;;;;;;;3.28;1.75;;;2.70;99.90;;;;;;5005035;28;21413;-70
2021/11/26 09:38:14;;;;;;;5.72;1.50;;;2.70;99.90;;;;;;5004386;28;20049;-63
2021/11/26 09:40:44;;;;;;;3.88;1.48;;;2.70;99.90;;;;;;5004015;28;20368;-66
2021/11/26 09:43:12;;;;;;;2.37;1.23;;;2.70;99.90;;;;;;5005610;28;20049;-64
2021/11/26 09:45:41;;;;;;;3.22;1.00;;;2.70;99.90;;;;;;5003837;28;20050;-67
2021/11/26 09:48:09;;;;;;;4.85;2.22;;;2.70;99.90;;;;;;4995031;28;20109;-63
2021/11/26 09:50:37;;;;;;;3.63;1.27;;;2.70;99.90;;;;;;5004427;28;20054;-64
2021/11/26 09:53:33;;;;;;;7.47;0.98;;;2.70;99.90;;;;;;5005406;28;20432;-63
2021/11/26 09:56:07;;;;;;;2.35;0.73;;;2.80;99.90;;;;;;5001820;28;20108;-64
2021/11/26 09:58:35;;;;;;;4.65;1.55;;;2.80;99.90;;;;;;5004064;28;20037;-63
2021/11/26 10:01:06;;;;;;;1.45;1.33;;;2.80;99.90;;;;;;5004873;28;20181;-65
2021/11/26 10:03:37;;;;;;;4.50;1.38;;;2.80;99.90;;;;;;5006188;28;20057;-63
2021/11/26 10:06:04;;;;;;;2.80;1.33;;;2.80;99.90;;;;;;5000811;28;20050;-63
2021/11/26 10:08:31;;;;;;;4.38;1.90;;;2.80;99.90;;;;;;5005062;28;20100;-64
2021/11/26 10:11:02;;;;;;;2.28;0.65;;;2.80;99.90;;;;;;5003476;28;20173;-63
2021/11/26 10:13:31;;;;;;;4.50;0.88;;;2.80;99.90;;;;;;5007140;28;20172;-65
2021/11/26 10:16:09;;;;;;;2.92;0.80;;;2.70;99.90;;;;;;5002522;28;20050;-66
2021/11/26 10:18:36;;;;;;;2.80;0.70;;;2.70;99.90;;;;;;5002681;28;23521;-65
2021/11/26 10:21:10;;;;;;;1.70;0.85;;;2.70;99.90;;;;;;5003571;28;20042;-65
2021/11/26 10:23:46;;;;;;;7.35;1.05;;;2.70;99.90;;;;;;5002160;28;20061;-63
2021/11/26 10:26:25;;;;;;;2.28;1.45;;;2.70;99.90;;;;;;5002107;28;20057;-66
2021/11/26 10:29:01;;;;;;;5.10;0.63;;;2.60;99.90;;;;;;4997876;28;20136;-68
2021/11/26 10:31:34;;;;;;;5.13;0.85;;;2.60;99.90;;;;;;5004402;28;20050;-68
2021/11/26 10:34:15;;;;;;;3.75;0.63;;;2.60;99.90;;;;;;4999590;28;20480;-66
2021/11/26 10:36:46;;;;;;;3.50;0.75;;;2.60;99.90;;;;;;5005253;28;20065;-66
2021/11/26 10:39:17;;;;;;;2.08;0.80;;;2.60;99.90;;;;;;5004879;28;20130;-64
2021/11/26 10:42:18;;;;;;;1.52;0.77;;;2.60;99.90;;;;;;5003704;28;20041;-64
2021/11/26 10:44:47;;;;;;;0.93;0.73;;;2.60;99.90;;;;;;5002122;28;20507;-63
2021/11/26 10:50:01;;;;;;;2.80;0.80;;;2.60;99.90;;;;;;5004561;28;20099;-64
2021/11/26 10:58:18;;;;;;;1.20;0.60;;;2.70;99.90;;;;;;5001356;28;20045;-64
2021/11/26 11:00:45;;;;;;;2.15;0.63;;;2.70;99.90;;;;;;5004987;28;20045;-64
2021/11/26 11:03:14;;;;;;;2.85;0.68;;;2.70;99.90;;;;;;5003757;28;20041;-64
2021/11/26 11:05:41;;;;;;;3.20;0.40;;;2.80;99.90;;;;;;5004395;28;20050;-67
2021/11/26 11:08:22;;;;;;;1.52;1.10;;;2.80;99.90;;;;;;5002364;28;20053;-64
2021/11/26 11:10:50;;;;;;;1.33;0.50;;;2.80;99.90;;;;;;5004573;28;20750;-67
2021/11/26 11:13:23;;;;;;;1.83;0.60;;;2.80;99.90;;;;;;5002920;28;20042;-64
2021/11/26 11:15:51;;;;;;;2.15;1.00;;;2.80;99.90;;;;;;5004529;28;20407;-66
2021/11/26 11:18:18;;;;;;;0.60;0.40;;;2.80;99.90;;;;;;5001505;28;20180;-64
2021/11/26 11:20:46;;;;;;;1.90;0.70;;;2.80;99.90;;;;;;5003986;28;20570;-65
2021/11/26 11:23:16;;;;;;;1.90;0.38;;;2.80;99.90;;;;;;5002756;28;20046;-63
2021/11/26 11:25:43;;;;;;;1.67;0.45;;;2.80;99.90;;;;;;4998909;28;20057;-64
2021/11/26 11:28:14;;;;;;;5.03;0.88;;;2.80;99.90;;;;;;4999910;28;20050;-66
2021/11/26 11:30:42;;;;;;;1.05;0.65;;;2.80;99.90;;;;;;5004605;28;20578;-63
2021/11/26 11:33:12;;;;;;;2.17;0.90;;;2.80;99.90;;;;;;5002798;28;20525;-63
2021/11/26 11:35:41;;;;;;;2.85;0.60;;;2.80;99.90;;;;;;5003092;28;20399;-66
2021/11/26 11:38:09;;;;;;;2.45;0.80;;;2.80;99.90;;;;;;5001757;28;20548;-64
2021/11/26 11:40:40;;;;;;;3.60;1.42;;;2.80;99.90;;;;;;5002127;28;20149;-66
2021/11/26 11:43:15;;;;;;;2.50;0.50;;;2.80;99.90;;;;;;4993575;28;20037;-71
2021/11/26 11:46:03;;;;;;;1.30;0.40;;;2.90;99.90;;;;;;5003291;28;20057;-65
2021/11/26 11:48:37;;;;;;;2.33;0.47;;;2.90;99.90;;;;;;5001292;28;20514;-64
2021/11/26 11:51:10;;;;;;;2.15;1.58;;;2.90;99.90;;;;;;5002933;28;20042;-65
2021/11/26 11:53:40;;;;;;;1.38;0.43;;;2.90;99.90;;;;;;5001801;28;20391;-64
2021/11/26 11:56:14;;;;;;;0.82;0.40;;;2.90;99.90;;;;;;5001284;28;20050;-65
2021/11/26 11:58:54;;;;;;;1.58;0.57;;;2.90;99.90;;;;;;5000999;28;20133;-64
2021/11/26 12:01:28;;;;;;;1.95;0.40;;;2.90;99.90;;;;;;5000629;28;20108;-63
2021/11/26 12:03:57;;;;;;;0.85;0.47;;;3.00;99.90;;;;;;5001046;28;20196;-71
2021/11/26 12:06:38;;;;;;;1.67;0.30;;;3.00;99.90;;;;;;4999872;28;20076;-63
2021/11/26 12:09:05;;;;;;;;;;;3.10;99.90;;;;;;5006367;28;20073;-63
2021/11/26 12:11:37;;;;;;;0.77;0.30;;;3.10;99.90;;;;;;5005068;28;19929;-63
2021/11/26 12:14:10;;;;;;;0.90;0.43;;;3.20;99.90;;;;;;5004072;28;20579;-64
2021/11/26 12:19:42;;;;;;;1.02;0.30;;;3.20;99.90;;;;;;5006078;28;20506;-67
2021/11/26 12:22:23;;;;;;;1.38;0.50;;;3.20;99.90;;;;;;5004103;28;20511;-63
2021/11/26 12:24:56;;;;;;;0.75;0.30;;;3.20;99.90;;;;;;5007088;28;20112;-67
2021/11/26 12:27:26;;;;;;;1.88;0.40;;;3.20;99.90;;;;;;5002422;28;20542;-64
2021/11/26 12:29:54;;;;;;;0.63;0.22;;;3.20;99.90;;;;;;5005724;28;20037;-65
2021/11/26 12:32:30;;;;;;;1.05;0.40;;;3.20;99.90;;;;;;5003259;28;20408;-69
2021/11/26 12:35:03;;;;;;;2.33;0.80;;;3.20;99.90;;;;;;5006210;28;20385;-66
2021/11/26 12:37:34;;;;;;;1.02;0.70;;;3.20;99.90;;;;;;5003845;28;20419;-65
2021/11/26 12:40:09;;;;;;;1.20;0.45;;;3.20;99.90;;;;;;5007198;28;20053;-64
2021/11/26 12:42:36;;;;;;;3.05;1.00;;;3.10;99.90;;;;;;5005299;28;20420;-65
2021/11/26 12:45:06;;;;;;;0.68;0.63;;;3.20;99.90;;;;;;5008150;28;20156;-64
2021/11/26 12:47:47;;;;;;;0.90;0.77;;;3.20;99.90;;;;;;5006774;28;20124;-63
2021/11/26 12:53:09;;;;;;;1.80;0.70;;;3.10;99.90;;;;;;5007588;28;20141;-64
2021/11/26 12:55:42;;;;;;;3.83;1.90;;;3.20;99.90;;;;;;5003958;28;20116;-64
2021/11/26 12:58:09;;;;;;;4.75;0.45;;;3.10;99.90;;;;;;5005497;28;20085;-63
2021/11/26 13:00:36;;;;;;;2.08;1.05;;;3.10;99.90;;;;;;5005114;28;20491;-64
2021/11/26 13:03:09;;;;;;;3.20;1.65;;;3.10;99.90;;;;;;5007570;28;20042;-63
2021/11/26 13:05:37;;;;;;;2.20;1.20;;;3.10;99.90;;;;;;5004578;28;20054;-64
2021/11/26 13:08:04;;;;;;;3.55;0.70;;;3.10;99.90;;;;;;5005389;28;20084;-64
2021/11/26 13:10:31;;;;;;;4.10;0.70;;;3.10;99.90;;;;;;5003336;28;20049;-67
2021/11/26 13:13:00;;;;;;;2.47;0.60;;;3.10;99.90;;;;;;5007425;28;20097;-67
2021/11/26 13:15:36;;;;;;;1.10;0.63;;;3.10;99.90;;;;;;5003375;28;20061;-67
2021/11/26 13:18:21;;;;;;;2.45;0.75;;;3.10;99.90;;;;;;4999376;28;20040;-69
2021/11/26 13:20:51;;;;;;;1.20;0.70;;;3.10;99.90;;;;;;5004602;28;20046;-67